Etusivu
METAR-TAF:

METAR-TAF

Lentoasemat :

Fairfield Municipal Airport

Fairfield, Iowa, Yhdysvallat

Leveyspiiri: 41-03N, Pituuspiiri: 091-59W, korkeus merenpinnasta: 244 m

Tämänhetkinen sää

Tämä raportti tehtiin 19 minuuttia sitten, kello 09.15 UTC
Tuuli 11 kn pohjoisen/luoteesta
Lämpötila 11°C
Kosteus 100%
Ilmanpaine 1004 hPa
Näkyvyys: 4.8 km
Pilvistä 200 ft:n korkeudessa
utua

METAR: KFFL 280915Z AUTO 33011KT 3SM BR OVC002 11/11 A2965 RMK A01

Aika: 04:34 (09:34 UTC)


TAF: puuttuu

Säähavainnot ja -ennusteet yli 4000 lentoasemalta (METAR- ja TAF-raportit).

Käytössä olevat sääasemat on merkitty karttaan keltaisilla ja punaisilla pisteillä.

Aseta hiiri pisteen päälle nähdäksesi sääaseman nimen.

Klikkaa sitten nähdäksesi säähavainnot ja -ennusteet.

Kartan vaihtaminen: klikkaa mustalla rastilla varustettuja vihreitä pisteitä, niin voit zoomata sisään; viivalla varustettua vihreää pistettä, niin voit zoomata ulos tai vihreitä nuolia, niin pääset viereisille kartoille.


METAR-TAF: